Maynard, Ohio
Current Conditions -  °F | °C
As of 4:36 PM on Friday 28 Nov 2014 (Local Time) from KHLG Reporting Station
Broken Clouds Broken Clouds  
Wind Chill: 18°   Ceiling: 3100
Heat Index: 27°   Visibility: 10mi
Dew Point: 17°   Wind: 9mph
Humidity: 66%   Direction: 230°SW
Pressure: 30.23"   Gusts: NA
Location:  40.12°N, 80.88°W
Report Text: KHLG 282136Z 23008KT 10SM FEW025 BKN031 BKN100 M03/M08 A3023 RMK AO2 T10281083
Loading
Personal Weather Stations






























Interactive Weather Map New forecast layout! Learn more

10-Day Weather Forecast

Advertisements
Track Severe Weather on mobile